Terminal Aerodrome Forecast
Issued by NWS

Home | Current Version | Previous Version | Graphics & Text | Print | Product List | Glossary On
Versions: 1 2 3 4 5 6 7 8 9 10 11 12 13
000
FTUS43 KMPX 021134
TAFRNH
TAF
KRNH 021134Z 0212/0312 15009KT P6SM BKN250
     FM021600 17014G22KT P6SM SCT250
     FM030200 17011KT P6SM BKN150
     FM031100 17010KT 6SM -TSRA BR OVC040CB=

USA.gov is the U.S. government's official web portal to all federal, state and local government web resources and services.